Time;durP1;ratioP1;P1;durP2;ratioP2;P2;SDS_P1;SDS_P2;PMS_P1;PMS_P2;Temp;Humidity;BMP_temperature;BMP_pressure;BME280_temperature;BME280_humidity;BME280_pressure;Samples;Min_cycle;Max_cycle;Signal;HPM_P1;HPM_P2
2021/09/24 00:00:46;;;;;;;5.13;3.22;;;;;;;;;;5034009;28;20032;-58
2021/09/24 00:03:12;;;;;;;4.88;2.95;;;;;;;;;;5016661;28;20321;-58
2021/09/24 00:05:37;;;;;;;5.93;4.20;;;;;;;;;;5032963;28;20026;-58
2021/09/24 00:08:04;;;;;;;5.55;3.47;;;;;;;;;;5033112;28;20028;-58
2021/09/24 00:10:30;;;;;;;3.85;2.92;;;;;;;;;;5033101;28;20041;-58
2021/09/24 00:12:56;;;;;;;3.95;2.78;;;;;;;;;;5033937;28;20037;-58
2021/09/24 00:15:22;;;;;;;4.50;2.92;;;;;;;;;;5036768;28;20045;-58
2021/09/24 00:17:48;;;;;;;5.95;3.45;;;;;;;;;;5019964;28;20032;-58
2021/09/24 00:20:19;;;;;;;3.47;2.70;;;;;;;;;;5037117;28;20511;-58
2021/09/24 00:22:45;;;;;;;5.30;3.22;;;;;;;;;;5037040;28;20021;-58
2021/09/24 00:25:11;;;;;;;4.70;3.67;;;;;;;;;;5019026;28;20026;-58
2021/09/24 00:27:38;;;;;;;4.57;3.38;;;;;;;;;;5036739;28;20026;-58
2021/09/24 00:30:05;;;;;;;4.47;3.72;;;;;;;;;;5036486;28;20375;-58
2021/09/24 00:32:34;;;;;;;4.38;3.13;;;;;;;;;;5036787;28;20136;-58
2021/09/24 00:35:00;;;;;;;8.05;4.22;;;;;;;;;;5018842;28;20033;-58
2021/09/24 00:37:26;;;;;;;3.50;2.80;;;;;;;;;;5036404;28;20132;-58
2021/09/24 00:39:52;;;;;;;5.68;3.40;;;;;;;;;;5018963;28;20072;-58
2021/09/24 00:42:18;;;;;;;4.72;4.00;;;;;;;;;;5036338;28;20033;-58
2021/09/24 00:44:50;;;;;;;7.10;4.50;;;;;;;;;;5036651;28;20112;-58
2021/09/24 00:47:19;;;;;;;6.65;3.53;;;;;;;;;;5018389;28;20030;-57
2021/09/24 00:49:46;;;;;;;5.28;3.58;;;;;;;;;;5036275;28;20025;-58
2021/09/24 00:52:12;;;;;;;5.03;4.00;;;;;;;;;;5018667;28;20037;-57
2021/09/24 00:54:39;;;;;;;4.38;3.45;;;;;;;;;;5035902;28;20021;-57
2021/09/24 00:57:05;;;;;;;4.32;3.63;;;;;;;;;;5036102;28;20032;-58
2021/09/24 00:59:31;;;;;;;6.40;3.50;;;;;;;;;;5035890;28;20360;-58
2021/09/24 01:01:58;;;;;;;5.18;3.25;;;;;;;;;;5036942;28;20395;-57
2021/09/24 01:04:24;;;;;;;4.50;3.60;;;;;;;;;;5018867;28;20029;-58
2021/09/24 01:06:50;;;;;;;5.15;3.92;;;;;;;;;;5018752;28;20036;-58
2021/09/24 01:09:20;;;;;;;5.07;4.15;;;;;;;;;;5018483;28;20518;-58
2021/09/24 01:11:46;;;;;;;4.90;3.80;;;;;;;;;;5035541;28;20161;-58
2021/09/24 01:14:12;;;;;;;4.72;3.72;;;;;;;;;;5035802;28;20077;-58
2021/09/24 01:16:41;;;;;;;5.30;3.75;;;;;;;;;;5035895;28;20033;-58
2021/09/24 01:19:07;;;;;;;5.40;3.63;;;;;;;;;;5035967;28;20112;-58
2021/09/24 01:21:33;;;;;;;5.47;4.18;;;;;;;;;;5017820;28;20217;-58
2021/09/24 01:23:59;;;;;;;4.32;3.42;;;;;;;;;;5018192;28;20428;-58
2021/09/24 01:26:25;;;;;;;4.22;3.10;;;;;;;;;;5035013;28;20017;-58
2021/09/24 01:28:51;;;;;;;4.88;3.30;;;;;;;;;;5036070;28;20186;-58
2021/09/24 01:31:19;;;;;;;4.35;3.70;;;;;;;;;;5017679;28;20081;-58
2021/09/24 01:33:46;;;;;;;5.38;4.10;;;;;;;;;;5018256;28;20499;-57
2021/09/24 01:36:12;;;;;;;5.07;3.58;;;;;;;;;;5017633;28;20042;-58
2021/09/24 01:38:38;;;;;;;4.65;3.90;;;;;;;;;;5035155;28;20026;-58
2021/09/24 01:41:05;;;;;;;4.70;3.60;;;;;;;;;;5001424;28;20029;-58
2021/09/24 01:43:32;;;;;;;4.57;3.38;;;;;;;;;;5035826;28;20029;-58
2021/09/24 01:45:58;;;;;;;6.35;4.13;;;;;;;;;;5035169;28;20072;-58
2021/09/24 01:48:24;;;;;;;6.03;3.65;;;;;;;;;;5035077;28;20040;-58
2021/09/24 01:50:50;;;;;;;5.10;4.32;;;;;;;;;;5017437;28;20030;-58
2021/09/24 01:53:16;;;;;;;5.43;3.95;;;;;;;;;;5017306;28;20022;-58
2021/09/24 01:55:42;;;;;;;4.97;4.03;;;;;;;;;;5017589;28;20057;-58
2021/09/24 01:58:08;;;;;;;4.50;3.45;;;;;;;;;;5018041;28;20033;-58
2021/09/24 02:00:37;;;;;;;4.28;3.28;;;;;;;;;;5034856;28;20033;-58
2021/09/24 02:03:03;;;;;;;5.15;3.60;;;;;;;;;;5034841;28;20075;-58
2021/09/24 02:05:29;;;;;;;4.40;3.60;;;;;;;;;;5034850;28;20108;-58
2021/09/24 02:07:55;;;;;;;4.50;3.85;;;;;;;;;;5017078;28;20031;-58
2021/09/24 02:10:21;;;;;;;8.65;4.30;;;;;;;;;;5017645;28;20061;-58
2021/09/24 02:12:50;;;;;;;5.10;4.07;;;;;;;;;;5034798;28;20108;-58
2021/09/24 02:15:16;;;;;;;6.00;5.20;;;;;;;;;;5016480;28;20064;-58
2021/09/24 02:17:42;;;;;;;6.82;4.95;;;;;;;;;;5035459;28;20032;-58
2021/09/24 02:20:09;;;;;;;4.65;3.75;;;;;;;;;;5034302;28;20483;-58
2021/09/24 02:22:38;;;;;;;5.65;4.55;;;;;;;;;;5034642;28;20104;-58
2021/09/24 02:25:05;;;;;;;5.75;3.90;;;;;;;;;;5017284;28;20026;-58
2021/09/24 02:27:31;;;;;;;4.70;3.90;;;;;;;;;;5017033;28;20026;-58
2021/09/24 02:29:57;;;;;;;6.13;4.30;;;;;;;;;;5034418;28;20029;-58
2021/09/24 02:32:23;;;;;;;7.43;3.97;;;;;;;;;;5034340;28;20060;-58
2021/09/24 02:34:49;;;;;;;7.38;5.15;;;;;;;;;;5034276;28;20034;-57
2021/09/24 02:37:15;;;;;;;5.57;4.65;;;;;;;;;;5033452;28;20036;-58
2021/09/24 02:39:40;;;;;;;5.20;4.20;;;;;;;;;;5034334;28;20029;-58
2021/09/24 02:42:07;;;;;;;5.03;3.85;;;;;;;;;;5034615;28;20029;-58
2021/09/24 02:44:33;;;;;;;5.72;4.40;;;;;;;;;;5015854;28;20062;-58
2021/09/24 02:46:59;;;;;;;4.65;3.92;;;;;;;;;;5034154;28;20069;-58
2021/09/24 02:49:25;;;;;;;6.00;4.15;;;;;;;;;;5033791;28;20032;-58
2021/09/24 02:51:51;;;;;;;6.53;4.18;;;;;;;;;;5034286;28;20037;-58
2021/09/24 02:54:17;;;;;;;6.95;4.65;;;;;;;;;;5034611;28;20076;-58
2021/09/24 02:56:43;;;;;;;8.35;4.82;;;;;;;;;;5016391;28;20029;-58
2021/09/24 02:59:09;;;;;;;5.43;4.32;;;;;;;;;;5033904;28;20033;-58
2021/09/24 03:01:35;;;;;;;5.03;4.18;;;;;;;;;;5016849;28;20034;-58
2021/09/24 03:04:01;;;;;;;5.35;4.20;;;;;;;;;;5017125;28;20036;-58
2021/09/24 03:06:30;;;;;;;5.45;4.82;;;;;;;;;;5015890;28;20068;-58
2021/09/24 03:08:56;;;;;;;5.07;3.85;;;;;;;;;;5033848;28;20083;-58
2021/09/24 03:11:22;;;;;;;6.20;4.05;;;;;;;;;;5033807;28;20042;-58
2021/09/24 03:13:48;;;;;;;6.60;4.15;;;;;;;;;;5034010;28;20053;-58
2021/09/24 03:16:20;;;;;;;6.35;4.47;;;;;;;;;;5016945;28;20025;-58
2021/09/24 03:18:46;;;;;;;5.38;3.65;;;;;;;;;;5016076;28;20036;-58
2021/09/24 03:21:12;;;;;;;5.35;4.43;;;;;;;;;;5016248;28;20030;-58
2021/09/24 03:23:38;;;;;;;6.20;4.35;;;;;;;;;;5033716;28;20483;-58
2021/09/24 03:26:04;;;;;;;4.75;3.80;;;;;;;;;;5033722;28;20029;-58
2021/09/24 03:28:31;;;;;;;6.32;4.65;;;;;;;;;;5033952;28;20032;-58
2021/09/24 03:30:57;;;;;;;5.55;4.35;;;;;;;;;;5033698;28;20034;-58
2021/09/24 03:33:23;;;;;;;6.82;3.72;;;;;;;;;;5015708;28;20041;-58
2021/09/24 03:35:49;;;;;;;5.38;3.72;;;;;;;;;;5033794;28;20168;-58
2021/09/24 03:38:18;;;;;;;9.32;4.10;;;;;;;;;;5015852;28;20061;-58
2021/09/24 03:40:44;;;;;;;6.80;4.80;;;;;;;;;;5016061;28;20387;-58
2021/09/24 03:43:10;;;;;;;7.28;4.30;;;;;;;;;;5033897;28;20026;-58
2021/09/24 03:45:36;;;;;;;6.43;4.40;;;;;;;;;;5015764;28;20028;-58
2021/09/24 03:48:02;;;;;;;5.78;4.20;;;;;;;;;;5015173;28;20084;-58
2021/09/24 03:50:29;;;;;;;6.00;4.65;;;;;;;;;;5037454;28;20367;-58
2021/09/24 03:52:55;;;;;;;7.75;4.45;;;;;;;;;;5019495;28;20036;-58
2021/09/24 03:55:21;;;;;;;5.47;4.75;;;;;;;;;;5037331;28;20030;-58
2021/09/24 03:57:47;;;;;;;5.80;4.70;;;;;;;;;;5037673;28;20033;-58
2021/09/24 04:00:14;;;;;;;5.47;3.97;;;;;;;;;;5020313;28;20173;-58
2021/09/24 04:02:40;;;;;;;6.75;4.72;;;;;;;;;;5037579;28;20029;-58
2021/09/24 04:05:07;;;;;;;4.97;4.03;;;;;;;;;;5037543;28;20030;-58
2021/09/24 04:07:33;;;;;;;5.32;4.65;;;;;;;;;;5037096;28;20032;-58
2021/09/24 04:09:59;;;;;;;8.48;5.10;;;;;;;;;;5037043;28;20026;-58
2021/09/24 04:12:25;;;;;;;5.78;4.82;;;;;;;;;;5037805;28;20037;-58
2021/09/24 04:14:50;;;;;;;5.03;4.47;;;;;;;;;;5037770;28;20056;-58
2021/09/24 04:17:17;;;;;;;7.43;4.88;;;;;;;;;;5036625;28;20032;-58
2021/09/24 04:19:43;;;;;;;5.88;4.72;;;;;;;;;;5019425;28;20451;-58
2021/09/24 04:22:09;;;;;;;6.32;5.13;;;;;;;;;;5037730;28;20040;-58
2021/09/24 04:24:35;;;;;;;6.00;5.03;;;;;;;;;;5037400;28;20494;-58
2021/09/24 04:27:01;;;;;;;6.15;4.22;;;;;;;;;;5019350;28;20367;-58
2021/09/24 04:29:30;;;;;;;6.10;4.68;;;;;;;;;;5036992;28;20021;-58
2021/09/24 04:31:56;;;;;;;5.43;4.60;;;;;;;;;;5019556;28;20034;-58
2021/09/24 04:34:22;;;;;;;8.07;5.25;;;;;;;;;;5036645;28;20029;-58
2021/09/24 04:36:48;;;;;;;5.93;4.35;;;;;;;;;;5036505;28;20033;-58
2021/09/24 04:39:14;;;;;;;7.47;4.95;;;;;;;;;;5036616;28;20029;-58
2021/09/24 04:41:40;;;;;;;7.47;4.22;;;;;;;;;;5036946;28;20088;-58
2021/09/24 04:44:06;;;;;;;5.28;4.65;;;;;;;;;;5036981;28;20060;-58
2021/09/24 04:46:32;;;;;;;6.45;5.15;;;;;;;;;;5018275;28;20451;-57
2021/09/24 04:48:58;;;;;;;5.22;4.38;;;;;;;;;;5036228;28;20117;-58
2021/09/24 04:51:24;;;;;;;7.90;4.63;;;;;;;;;;5034875;28;20136;-58
2021/09/24 04:53:56;;;;;;;9.93;6.60;;;;;;;;;;5036176;28;20029;-58
2021/09/24 04:56:22;;;;;;;5.63;4.53;;;;;;;;;;5018414;28;20037;-58
2021/09/24 04:58:51;;;;;;;6.50;5.75;;;;;;;;;;5036410;28;20064;-58
2021/09/24 05:01:24;;;;;;;6.30;5.05;;;;;;;;;;5035423;28;20418;-58
2021/09/24 05:03:50;;;;;;;6.43;4.63;;;;;;;;;;5036369;28;20056;-58
2021/09/24 05:06:16;;;;;;;5.55;4.80;;;;;;;;;;5035992;28;20392;-58
2021/09/24 05:08:42;;;;;;;15.10;5.22;;;;;;;;;;5018736;28;20355;-58
2021/09/24 05:11:08;;;;;;;6.45;4.93;;;;;;;;;;5035780;28;20037;-58
2021/09/24 05:13:34;;;;;;;6.80;5.30;;;;;;;;;;5036104;28;20021;-58
2021/09/24 05:16:00;;;;;;;8.68;5.07;;;;;;;;;;5035753;28;20064;-58
2021/09/24 05:18:26;;;;;;;5.78;4.97;;;;;;;;;;5035811;28;20374;-58
2021/09/24 05:20:52;;;;;;;7.97;5.00;;;;;;;;;;5035711;28;20137;-58
2021/09/24 05:23:18;;;;;;;6.10;4.50;;;;;;;;;;5036011;28;20025;-58
2021/09/24 05:25:44;;;;;;;8.00;5.07;;;;;;;;;;5035895;28;20380;-58
2021/09/24 05:28:10;;;;;;;6.43;4.90;;;;;;;;;;5035635;28;20519;-58
2021/09/24 05:30:36;;;;;;;6.60;4.88;;;;;;;;;;5001452;28;20485;-58
2021/09/24 05:33:02;;;;;;;6.78;5.10;;;;;;;;;;5036126;28;20033;-58
2021/09/24 05:35:31;;;;;;;5.80;4.47;;;;;;;;;;5035635;28;20416;-58
2021/09/24 05:37:58;;;;;;;5.80;4.45;;;;;;;;;;5035087;28;20025;-58
2021/09/24 05:40:24;;;;;;;6.15;5.03;;;;;;;;;;5018485;28;20029;-58
2021/09/24 05:42:51;;;;;;;7.10;5.63;;;;;;;;;;5035763;28;20028;-58
2021/09/24 05:45:18;;;;;;;6.63;4.25;;;;;;;;;;5035303;28;20021;-58
2021/09/24 05:47:45;;;;;;;6.10;5.50;;;;;;;;;;5035210;28;20080;-58
2021/09/24 05:50:16;;;;;;;7.45;4.70;;;;;;;;;;5035553;28;20057;-58
2021/09/24 05:52:44;;;;;;;4.25;3.72;;;;;;;;;;5035665;28;20034;-58
2021/09/24 05:55:10;;;;;;;6.40;4.57;;;;;;;;;;5017251;28;20028;-58
2021/09/24 05:57:37;;;;;;;6.10;4.60;;;;;;;;;;5035368;28;20079;-58
2021/09/24 06:00:04;;;;;;;6.70;5.20;;;;;;;;;;5035123;28;20029;-58
2021/09/24 06:02:30;;;;;;;5.85;4.93;;;;;;;;;;5035371;28;20049;-58
2021/09/24 06:04:56;;;;;;;6.95;5.30;;;;;;;;;;5034862;28;20475;-58
2021/09/24 06:07:22;;;;;;;6.22;4.90;;;;;;;;;;5034586;28;20025;-58
2021/09/24 06:09:48;;;;;;;5.80;4.07;;;;;;;;;;5034807;28;20112;-59
2021/09/24 06:12:14;;;;;;;9.60;4.85;;;;;;;;;;5017178;28;20037;-58
2021/09/24 06:14:40;;;;;;;6.07;4.93;;;;;;;;;;5034773;28;20041;-58
2021/09/24 06:17:09;;;;;;;5.38;4.88;;;;;;;;;;5034631;28;20026;-58
2021/09/24 06:19:38;;;;;;;10.18;4.53;;;;;;;;;;5018284;28;20030;-58
2021/09/24 06:22:04;;;;;;;8.32;5.68;;;;;;;;;;5035153;28;20037;-58
2021/09/24 06:24:30;;;;;;;5.25;4.10;;;;;;;;;;5035050;28;20049;-57
2021/09/24 06:26:56;;;;;;;7.22;4.53;;;;;;;;;;5034479;28;20026;-58
2021/09/24 06:29:22;;;;;;;7.90;5.70;;;;;;;;;;5034472;28;20029;-58
2021/09/24 06:31:48;;;;;;;7.18;4.60;;;;;;;;;;5016636;28;20037;-58
2021/09/24 06:34:17;;;;;;;5.43;4.50;;;;;;;;;;5033998;28;20093;-58
2021/09/24 06:36:43;;;;;;;6.72;4.60;;;;;;;;;;5034199;28;20029;-58
2021/09/24 06:39:11;;;;;;;7.43;5.00;;;;;;;;;;5034782;28;20056;-58
2021/09/24 06:41:38;;;;;;;6.90;5.85;;;;;;;;;;5034560;28;20044;-58
2021/09/24 06:44:07;;;;;;;6.00;5.15;;;;;;;;;;5034611;28;20026;-58
2021/09/24 06:46:33;;;;;;;6.50;4.80;;;;;;;;;;5034136;28;20175;-57
2021/09/24 06:48:59;;;;;;;7.88;5.00;;;;;;;;;;5016969;28;20029;-58
2021/09/24 06:51:31;;;;;;;5.38;4.32;;;;;;;;;;5034107;28;20463;-58
2021/09/24 06:53:57;;;;;;;7.13;5.15;;;;;;;;;;5016444;28;20021;-58
2021/09/24 06:56:23;;;;;;;5.22;4.68;;;;;;;;;;5016876;28;20087;-58
2021/09/24 06:58:49;;;;;;;7.03;5.30;;;;;;;;;;5034119;28;20387;-58
2021/09/24 07:01:15;;;;;;;6.63;5.25;;;;;;;;;;5033668;28;20040;-57
2021/09/24 07:03:41;;;;;;;6.68;4.82;;;;;;;;;;5016679;28;20025;-58
2021/09/24 07:06:07;;;;;;;5.60;4.90;;;;;;;;;;5016975;28;20032;-58
2021/09/24 07:08:33;;;;;;;8.90;5.15;;;;;;;;;;5033907;28;20033;-58
2021/09/24 07:10:59;;;;;;;7.68;5.55;;;;;;;;;;5033470;28;20457;-58
2021/09/24 07:13:25;;;;;;;5.88;5.00;;;;;;;;;;5034410;28;20072;-58
2021/09/24 07:15:51;;;;;;;6.38;4.95;;;;;;;;;;5033508;28;20096;-58
2021/09/24 07:18:18;;;;;;;6.50;5.00;;;;;;;;;;5016655;28;20436;-58
2021/09/24 07:20:44;;;;;;;5.35;4.40;;;;;;;;;;5033786;28;20088;-58
2021/09/24 07:23:10;;;;;;;6.22;4.30;;;;;;;;;;5033608;28;20029;-58
2021/09/24 07:25:36;;;;;;;6.05;4.55;;;;;;;;;;5033923;28;20065;-58
2021/09/24 07:28:02;;;;;;;6.00;4.65;;;;;;;;;;5033322;28;20526;-58
2021/09/24 07:30:28;;;;;;;5.47;4.85;;;;;;;;;;5034357;28;20064;-58
2021/09/24 07:32:54;;;;;;;6.25;5.32;;;;;;;;;;5016670;28;20033;-58
2021/09/24 07:35:20;;;;;;;5.85;4.47;;;;;;;;;;5016094;28;20034;-58
2021/09/24 07:37:46;;;;;;;7.55;5.00;;;;;;;;;;5016159;28;20029;-57
2021/09/24 07:40:12;;;;;;;5.28;4.43;;;;;;;;;;5033496;28;20025;-58
2021/09/24 07:42:38;;;;;;;7.00;4.47;;;;;;;;;;5033122;28;20064;-58
2021/09/24 07:45:06;;;;;;;9.30;4.97;;;;;;;;;;5033190;28;20026;-58
2021/09/24 07:47:32;;;;;;;6.45;4.45;;;;;;;;;;5033734;28;20092;-58
2021/09/24 07:50:01;;;;;;;7.13;4.88;;;;;;;;;;5033378;28;20452;-58
2021/09/24 07:52:27;;;;;;;7.35;6.28;;;;;;;;;;5016447;28;20112;-58
2021/09/24 07:54:56;;;;;;;6.55;5.13;;;;;;;;;;5033276;28;20026;-58
2021/09/24 07:57:22;;;;;;;5.85;4.68;;;;;;;;;;5033190;28;20025;-58
2021/09/24 07:59:53;;;;;;;5.75;5.05;;;;;;;;;;5033918;28;20415;-58
2021/09/24 08:02:19;;;;;;;6.97;5.40;;;;;;;;;;5015818;28;20044;-58
2021/09/24 08:04:49;;;;;;;6.07;5.10;;;;;;;;;;5033216;28;20117;-58
2021/09/24 08:07:17;;;;;;;5.25;4.43;;;;;;;;;;5033153;28;20029;-58
2021/09/24 08:09:43;;;;;;;6.45;5.00;;;;;;;;;;5033155;28;20029;-58
2021/09/24 08:12:09;;;;;;;7.40;5.43;;;;;;;;;;5033674;28;20033;-58
2021/09/24 08:14:36;;;;;;;6.15;5.03;;;;;;;;;;5033277;28;20046;-58
2021/09/24 08:17:02;;;;;;;7.25;5.30;;;;;;;;;;5033295;28;20033;-58
2021/09/24 08:19:28;;;;;;;5.90;5.05;;;;;;;;;;5015438;28;20032;-58
2021/09/24 08:21:54;;;;;;;5.32;4.00;;;;;;;;;;5033165;28;20034;-58
2021/09/24 08:24:23;;;;;;;6.20;4.80;;;;;;;;;;5032760;28;20467;-58
2021/09/24 08:26:52;;;;;;;5.28;4.35;;;;;;;;;;5033832;28;20031;-58
2021/09/24 08:29:18;;;;;;;5.93;4.63;;;;;;;;;;5033014;28;20116;-58
2021/09/24 08:31:44;;;;;;;7.60;4.63;;;;;;;;;;5032971;28;20034;-58
2021/09/24 08:34:10;;;;;;;4.47;3.90;;;;;;;;;;5033101;28;20037;-58
2021/09/24 08:36:36;;;;;;;6.50;4.30;;;;;;;;;;5035444;28;20025;-58
2021/09/24 08:39:02;;;;;;;5.28;4.47;;;;;;;;;;5036605;28;20028;-58
2021/09/24 08:41:29;;;;;;;4.63;3.78;;;;;;;;;;5018845;28;20029;-58
2021/09/24 08:43:59;;;;;;;6.72;5.15;;;;;;;;;;5036887;28;20025;-58
2021/09/24 08:46:28;;;;;;;5.72;4.43;;;;;;;;;;5018771;28;20025;-58
2021/09/24 08:48:54;;;;;;;5.80;4.35;;;;;;;;;;5036928;28;20133;-58
2021/09/24 08:51:20;;;;;;;6.75;4.78;;;;;;;;;;5036198;28;20379;-58
2021/09/24 08:53:46;;;;;;;5.57;4.30;;;;;;;;;;5036643;28;20032;-58
2021/09/24 08:56:14;;;;;;;5.15;4.47;;;;;;;;;;5036198;28;20065;-58
2021/09/24 08:58:40;;;;;;;4.55;4.03;;;;;;;;;;5036154;28;20032;-58
2021/09/24 09:01:09;;;;;;;10.73;3.88;;;;;;;;;;5036247;28;20021;-58
2021/09/24 09:03:41;;;;;;;6.88;4.82;;;;;;;;;;5036521;28;20473;-58
2021/09/24 09:06:08;;;;;;;8.75;4.70;;;;;;;;;;5036384;28;20030;-58
2021/09/24 09:08:36;;;;;;;5.47;3.92;;;;;;;;;;5036404;28;20049;-58
2021/09/24 09:11:07;;;;;;;9.13;4.13;;;;;;;;;;5035894;28;20419;-58
2021/09/24 09:13:42;;;;;;;7.45;4.55;;;;;;;;;;5018913;28;20108;-59
2021/09/24 09:16:20;;;;;;;5.10;3.90;;;;;;;;;;5036312;28;20025;-58
2021/09/24 09:18:47;;;;;;;6.10;4.53;;;;;;;;;;5035632;28;20109;-58
2021/09/24 09:21:14;;;;;;;6.65;4.05;;;;;;;;;;5036109;28;20151;-58
2021/09/24 09:23:45;;;;;;;4.80;3.55;;;;;;;;;;5036371;28;20032;-58
2021/09/24 09:26:12;;;;;;;6.68;3.90;;;;;;;;;;5035878;28;20028;-58
2021/09/24 09:28:40;;;;;;;5.97;3.78;;;;;;;;;;5035654;28;20030;-58
2021/09/24 09:31:33;;;;;;;4.78;3.28;;;;;;;;;;5036137;28;20030;-58
2021/09/24 09:34:00;;;;;;;3.97;3.35;;;;;;;;;;5032138;28;20057;-58
2021/09/24 09:36:28;;;;;;;4.97;3.65;;;;;;;;;;5035522;28;20021;-58
2021/09/24 09:38:54;;;;;;;4.55;3.55;;;;;;;;;;5035342;28;20026;-58
2021/09/24 09:41:22;;;;;;;3.83;3.33;;;;;;;;;;5017695;28;20025;-58
2021/09/24 09:44:00;;;;;;;4.97;3.42;;;;;;;;;;5036262;28;20029;-58
2021/09/24 09:46:31;;;;;;;6.13;4.05;;;;;;;;;;5035785;28;20038;-58
2021/09/24 09:49:05;;;;;;;4.18;3.42;;;;;;;;;;5035475;28;20410;-58
2021/09/24 09:51:31;;;;;;;5.50;3.97;;;;;;;;;;5035246;28;20379;-58
2021/09/24 09:53:57;;;;;;;5.45;2.78;;;;;;;;;;5035166;28;20017;-58
2021/09/24 09:56:34;;;;;;;5.65;2.95;;;;;;;;;;5034960;28;20112;-58
2021/09/24 09:59:00;;;;;;;4.57;3.13;;;;;;;;;;5018035;28;20333;-58
2021/09/24 10:01:26;;;;;;;3.88;3.10;;;;;;;;;;5034943;28;20033;-58
2021/09/24 10:03:56;;;;;;;5.43;3.20;;;;;;;;;;5035378;28;20046;-58
2021/09/24 10:06:24;;;;;;;3.88;3.05;;;;;;;;;;5034955;28;20237;-58
2021/09/24 10:08:54;;;;;;;4.55;3.00;;;;;;;;;;5017258;28;20021;-58
2021/09/24 10:11:20;;;;;;;5.00;3.17;;;;;;;;;;5017543;28;20021;-58
2021/09/24 10:13:55;;;;;;;3.20;2.70;;;;;;;;;;5035263;28;20160;-59
2021/09/24 10:16:23;;;;;;;2.83;2.25;;;;;;;;;;5035038;28;20021;-58
2021/09/24 10:18:49;;;;;;;3.40;2.38;;;;;;;;;;5034698;28;20032;-58
2021/09/24 10:21:15;;;;;;;4.03;2.72;;;;;;;;;;5034743;28;20105;-58
2021/09/24 10:23:42;;;;;;;4.13;2.88;;;;;;;;;;5034995;28;20451;-58
2021/09/24 10:26:11;;;;;;;3.03;2.13;;;;;;;;;;5034568;28;20068;-58
2021/09/24 10:28:39;;;;;;;5.55;2.97;;;;;;;;;;5016765;28;20546;-58
2021/09/24 10:31:05;;;;;;;2.83;2.35;;;;;;;;;;5034677;28;20034;-58
2021/09/24 10:33:46;;;;;;;4.65;2.72;;;;;;;;;;5034899;28;20479;-58
2021/09/24 10:36:32;;;;;;;4.55;2.85;;;;;;;;;;5034496;28;20053;-58
2021/09/24 10:39:00;;;;;;;4.88;2.45;;;;;;;;;;5034916;28;20017;-58
2021/09/24 10:41:26;;;;;;;4.57;3.05;;;;;;;;;;5034675;28;20053;-58
2021/09/24 10:43:56;;;;;;;3.50;2.47;;;;;;;;;;5017218;28;20022;-58
2021/09/24 10:46:25;;;;;;;6.53;3.07;;;;;;;;;;5034199;28;20384;-58
2021/09/24 10:49:09;;;;;;;4.03;2.65;;;;;;;;;;5034735;28;20384;-58
2021/09/24 10:51:37;;;;;;;3.85;3.00;;;;;;;;;;5034111;28;20041;-58
2021/09/24 10:54:21;;;;;;;4.30;2.45;;;;;;;;;;5033784;28;20029;-58
2021/09/24 10:57:10;;;;;;;3.15;2.30;;;;;;;;;;5034476;28;20029;-58
2021/09/24 10:59:38;;;;;;;3.40;2.60;;;;;;;;;;5021009;28;20030;-58
2021/09/24 11:02:25;;;;;;;4.30;2.83;;;;;;;;;;5034018;28;20037;-58
2021/09/24 11:04:51;;;;;;;3.25;2.83;;;;;;;;;;5020547;28;20030;-58
2021/09/24 11:07:31;;;;;;;3.55;2.60;;;;;;;;;;5033899;28;20025;-58
2021/09/24 11:09:57;;;;;;;7.07;2.92;;;;;;;;;;5034205;28;20018;-58
2021/09/24 11:12:24;;;;;;;3.83;2.92;;;;;;;;;;5034141;28;20529;-58
2021/09/24 11:15:09;;;;;;;4.65;2.60;;;;;;;;;;5033700;28;20488;-58
2021/09/24 11:17:40;;;;;;;4.28;3.10;;;;;;;;;;5016100;28;20072;-58
2021/09/24 11:20:25;;;;;;;3.60;2.88;;;;;;;;;;5033728;28;20030;-58
2021/09/24 11:22:51;;;;;;;2.90;2.40;;;;;;;;;;5033640;28;20025;-58
2021/09/24 11:25:17;;;;;;;3.72;2.65;;;;;;;;;;5033529;28;20067;-58
2021/09/24 11:27:45;;;;;;;4.20;2.92;;;;;;;;;;5015745;28;20022;-58
2021/09/24 11:30:13;;;;;;;4.75;2.95;;;;;;;;;;5033527;28;20032;-58
2021/09/24 11:32:48;;;;;;;3.67;2.53;;;;;;;;;;5016345;28;20149;-58
2021/09/24 11:35:15;;;;;;;4.68;3.08;;;;;;;;;;5016357;28;20032;-58
2021/09/24 11:37:46;;;;;;;4.15;2.75;;;;;;;;;;5033458;28;20028;-58
2021/09/24 11:40:16;;;;;;;3.65;2.72;;;;;;;;;;5034150;28;20092;-58
2021/09/24 11:42:42;;;;;;;;;;;;;;;;;;5034061;28;20372;-58
2021/09/24 11:45:18;;;;;;;4.40;3.20;;;;;;;;;;5033390;28;19905;-58
2021/09/24 11:47:45;;;;;;;4.38;2.72;;;;;;;;;;5016080;28;20029;-58
2021/09/24 11:50:19;;;;;;;4.60;2.97;;;;;;;;;;5033376;28;20364;-58
2021/09/24 11:52:51;;;;;;;3.13;2.45;;;;;;;;;;5033693;28;20026;-58
2021/09/24 11:55:22;;;;;;;3.60;2.38;;;;;;;;;;5016204;28;20109;-58
2021/09/24 11:57:56;;;;;;;3.17;2.20;;;;;;;;;;5033405;28;20025;-58
2021/09/24 12:00:23;;;;;;;3.60;2.63;;;;;;;;;;5033639;28;20030;-58
2021/09/24 12:02:49;;;;;;;4.20;2.70;;;;;;;;;;5034077;28;20462;-58
2021/09/24 12:05:15;;;;;;;3.88;3.10;;;;;;;;;;5033705;28;20021;-58
2021/09/24 12:07:49;;;;;;;3.75;2.70;;;;;;;;;;5033644;28;20419;-58
2021/09/24 12:10:16;;;;;;;3.55;2.65;;;;;;;;;;5035907;28;20021;-58
2021/09/24 12:12:44;;;;;;;2.85;2.20;;;;;;;;;;5037657;28;20029;-58
2021/09/24 12:15:10;;;;;;;3.38;2.53;;;;;;;;;;5003354;28;20049;-58
2021/09/24 12:17:36;;;;;;;5.80;2.58;;;;;;;;;;5037848;28;20087;-58
2021/09/24 12:20:03;;;;;;;4.72;3.20;;;;;;;;;;5037068;28;20055;-58
2021/09/24 12:22:29;;;;;;;3.22;2.30;;;;;;;;;;5036953;28;20025;-58
2021/09/24 12:24:55;;;;;;;4.30;2.53;;;;;;;;;;5036864;28;20022;-58
2021/09/24 12:27:27;;;;;;;4.35;2.60;;;;;;;;;;5036815;28;20414;-58
2021/09/24 12:29:53;;;;;;;3.15;2.13;;;;;;;;;;5036913;28;20017;-58
2021/09/24 12:32:24;;;;;;;3.97;2.65;;;;;;;;;;5036743;28;20030;-58
2021/09/24 12:34:54;;;;;;;3.75;2.50;;;;;;;;;;5037341;28;20048;-58
2021/09/24 12:37:40;;;;;;;4.22;2.47;;;;;;;;;;5036670;28;20028;-58
2021/09/24 12:40:09;;;;;;;3.25;2.40;;;;;;;;;;5036262;28;20455;-58
2021/09/24 12:42:36;;;;;;;3.22;2.38;;;;;;;;;;5036610;28;20502;-58
2021/09/24 12:45:05;;;;;;;4.32;2.42;;;;;;;;;;5036066;28;20451;-58
2021/09/24 12:47:32;;;;;;;3.25;2.28;;;;;;;;;;5036439;28;20041;-58
2021/09/24 12:50:00;;;;;;;4.85;3.13;;;;;;;;;;5036472;28;20026;-58
2021/09/24 12:52:27;;;;;;;4.50;3.03;;;;;;;;;;5036340;28;20025;-58
2021/09/24 12:54:53;;;;;;;5.18;2.55;;;;;;;;;;5036329;28;20360;-58
2021/09/24 12:57:20;;;;;;;4.10;3.13;;;;;;;;;;5036887;28;20045;-58
2021/09/24 12:59:47;;;;;;;3.45;2.55;;;;;;;;;;5036339;28;20030;-58
2021/09/24 13:02:14;;;;;;;4.45;3.22;;;;;;;;;;5036320;28;20029;-58
2021/09/24 13:04:41;;;;;;;3.85;2.80;;;;;;;;;;5036240;28;20017;-58
2021/09/24 13:07:07;;;;;;;6.38;2.45;;;;;;;;;;5036425;28;20475;-58
2021/09/24 13:09:36;;;;;;;3.63;2.35;;;;;;;;;;5036490;28;20069;-58
2021/09/24 13:12:02;;;;;;;3.70;2.72;;;;;;;;;;5035749;28;20049;-58
2021/09/24 13:14:28;;;;;;;3.95;2.75;;;;;;;;;;5035982;28;20496;-58
2021/09/24 13:16:54;;;;;;;4.40;3.08;;;;;;;;;;5035911;28;20033;-58
2021/09/24 13:19:20;;;;;;;3.63;2.60;;;;;;;;;;5035469;28;20379;-58
2021/09/24 13:21:46;;;;;;;3.30;2.67;;;;;;;;;;5017780;28;20025;-58
2021/09/24 13:24:12;;;;;;;4.18;2.63;;;;;;;;;;5018726;28;20029;-58
2021/09/24 13:26:38;;;;;;;7.88;3.38;;;;;;;;;;5035700;28;20031;-58
2021/09/24 13:29:05;;;;;;;4.97;3.00;;;;;;;;;;5035375;28;20025;-59
2021/09/24 13:31:31;;;;;;;6.38;3.67;;;;;;;;;;5035594;28;20037;-58
2021/09/24 13:33:57;;;;;;;6.30;3.42;;;;;;;;;;5036110;28;20029;-58
2021/09/24 13:36:23;;;;;;;4.38;3.13;;;;;;;;;;5035595;28;20032;-58
2021/09/24 13:38:49;;;;;;;6.13;2.83;;;;;;;;;;5035498;28;20468;-58
2021/09/24 13:41:16;;;;;;;3.97;3.08;;;;;;;;;;5036268;28;20059;-58
2021/09/24 13:43:41;;;;;;;3.45;2.88;;;;;;;;;;5018436;28;20030;-58
2021/09/24 13:46:08;;;;;;;4.10;3.17;;;;;;;;;;5035761;28;20026;-58
2021/09/24 13:48:35;;;;;;;4.63;3.28;;;;;;;;;;5035214;28;20028;-58
2021/09/24 13:51:01;;;;;;;3.92;3.10;;;;;;;;;;5035247;28;20040;-58
2021/09/24 13:53:27;;;;;;;6.10;2.78;;;;;;;;;;5035046;28;20464;-58
2021/09/24 13:55:53;;;;;;;4.70;2.55;;;;;;;;;;5035252;28;20032;-58
2021/09/24 13:58:19;;;;;;;3.35;2.80;;;;;;;;;;5035421;28;20026;-58
2021/09/24 14:00:45;;;;;;;5.13;3.13;;;;;;;;;;5035120;28;20053;-58
2021/09/24 14:03:11;;;;;;;3.45;2.55;;;;;;;;;;5035687;28;20050;-58
2021/09/24 14:05:37;;;;;;;4.15;3.53;;;;;;;;;;5035105;28;20018;-58
2021/09/24 14:08:04;;;;;;;4.93;3.03;;;;;;;;;;5035684;28;20025;-58
2021/09/24 14:10:29;;;;;;;4.03;2.72;;;;;;;;;;5034476;28;20467;-58
2021/09/24 14:12:56;;;;;;;4.57;2.72;;;;;;;;;;5017965;28;20033;-58
2021/09/24 14:15:22;;;;;;;4.75;3.22;;;;;;;;;;5035285;28;20106;-58
2021/09/24 14:17:48;;;;;;;6.00;2.90;;;;;;;;;;5035281;28;20116;-58
2021/09/24 14:20:18;;;;;;;4.70;2.90;;;;;;;;;;5034959;28;20041;-59
2021/09/24 14:22:44;;;;;;;5.00;3.05;;;;;;;;;;5035056;28;20538;-58
2021/09/24 14:25:11;;;;;;;4.85;3.10;;;;;;;;;;5035116;28;20033;-58
2021/09/24 14:27:37;;;;;;;3.78;3.00;;;;;;;;;;5016860;28;20025;-58
2021/09/24 14:30:06;;;;;;;4.10;2.95;;;;;;;;;;5034504;28;20025;-58
2021/09/24 14:32:32;;;;;;;6.15;2.70;;;;;;;;;;5035279;28;20056;-59
2021/09/24 14:34:58;;;;;;;9.38;2.90;;;;;;;;;;5016433;28;20017;-59
2021/09/24 14:37:24;;;;;;;4.40;2.95;;;;;;;;;;5034267;28;20028;-59
2021/09/24 14:39:50;;;;;;;3.88;2.90;;;;;;;;;;5034377;28;20093;-58
2021/09/24 14:42:17;;;;;;;4.57;3.25;;;;;;;;;;5034415;28;20460;-59
2021/09/24 14:44:43;;;;;;;3.58;2.78;;;;;;;;;;5034837;28;20424;-59